Hordafor III — LLVC — position and weather

sailwx.info

Track history (hours):
 
Tides and Currents Weather Stations Pressure Air Temp Water Temp Dewpoint Dewpoint Depression Visibility Wind Speed Wind Dir Waves Ship Positions

Hordafor III

Last reported at 2016-May-28 23:33 UTC. Time now 2016-May-29 00:05 UTC.
Position N 60°35' E 004°54'.

Length 50 m; draft 6 m.

Type: Wing in ground effect craft. MMSI: 258044000.

Date/timePositionNaut miles runAvg speedWind from/ knotsBaromVisibWave heightAir tempDewpointWater temp
2016-May-28 23:33N 60°35' E 004°54'210 7.0
2016-May-27 17:33N 63°29' E 009°02'1211.5
2016-May-27 16:33N 63°35' E 009°25'8210.2
2016-May-27 08:31N 64°45' E 011°01'1010.5
2016-May-27 07:34N 64°53' E 011°17'1110.7
2016-May-27 06:33N 64°60' E 011°36'1010.4
2016-May-27 05:34N 65°08' E 011°50'68 9.7
2016-May-26 22:33N 66°15' E 012°30'8 7.9
2016-May-26 21:34N 66°22' E 012°23'0 0.0
2016-May-26 20:34N 66°22' E 012°23'0 0.0
2016-May-26 19:33N 66°22' E 012°23'0 0.0
2016-May-26 18:33N 66°22' E 012°23'0 0.0
2016-May-26 17:33N 66°22' E 012°23'5 4.7
2016-May-26 16:33N 66°26' E 012°30'2 2.3
2016-May-26 15:33N 66°23' E 012°28'3 2.5
2016-May-26 14:33N 66°22' E 012°23'0 0.0
2016-May-26 13:33N 66°22' E 012°23'0 0.0
2016-May-26 12:34N 66°22' E 012°23'0 0.0
2016-May-26 11:33N 66°22' E 012°23'0 0.0
2016-May-26 10:34N 66°22' E 012°23'0 0.0
2016-May-26 09:34N 66°22' E 012°23'3 3.1
2016-May-26 08:34N 66°19' E 012°23'10 9.7
2016-May-26 07:33N 66°11' E 012°39'56 9.2
2016-May-26 01:25N 65°17' E 011°59'910.5
2016-May-26 00:33N 65°09' E 011°50'1010.4
2016-May-25 23:33N 65°00' E 011°37'1110.5
2016-May-25 22:34N 64°53' E 011°19'1110.9
2016-May-25 21:33N 64°45' E 011°01'7910.5
2016-May-25 14:04N 63°41' E 009°16'3 5.8
2016-May-25 13:33N 63°43' E 009°20'6 1.4
2016-May-25 09:33N 63°38' E 009°19'1 1.0
2016-May-25 08:34N 63°37' E 009°21'7 7.4
2016-May-25 07:33N 63°43' E 009°32'2 0.3
2016-May-25 00:33N 63°42' E 009°30'11 9.7
2016-May-24 23:26N 63°33' E 009°16'  
2016-May-22 06:20N 61°49' E 005°09'4 5.5
2016-May-22 05:34N 61°53' E 005°10'9 9.1
2016-May-22 04:34N 62°02' E 005°09'19 8.1
2016-May-22 02:10N 62°18' E 005°32'11910.2
2016-May-21 14:32N 63°29' E 008°60'1111.3
2016-May-21 13:33N 63°34' E 009°22'1010.0
2016-May-21 12:34N 63°43' E 009°32'79 9.9
2016-May-21 04:34N 64°50' E 011°10'1010.1
2016-May-21 03:33N 64°56' E 011°28'1010.3
2016-May-21 02:33N 65°04' E 011°45'1010.4
2016-May-21 01:34N 65°13' E 011°54'63 9.0
2016-May-20 18:33N 66°15' E 012°29'7 7.4
2016-May-20 17:34N 66°22' E 012°22'0 0.0
2016-May-20 16:33N 66°22' E 012°22'0 0.0
2016-May-20 15:34N 66°22' E 012°22'0 0.1
2016-May-20 14:33N 66°22' E 012°23'0 0.0
2016-May-20 13:33N 66°22' E 012°23'0 0.0
2016-May-20 12:34N 66°22' E 012°23'0 0.0
2016-May-20 11:33N 66°22' E 012°23'0 0.0
2016-May-20 10:33N 66°22' E 012°23'8 8.3
2016-May-20 09:33N 66°14' E 012°22'57 6.7
2016-May-20 01:05N 65°18' E 011°59'3210.7
2016-May-19 22:04N 64°51' E 011°14'611.3
2016-May-19 21:33N 64°47' E 011°04'80 6.6
2016-May-19 09:34N 63°39' E 009°29'1110.5
2016-May-19 08:33N 63°32' E 009°12'  
Track history (hours):
 
Tides and Currents Weather Stations Pressure Air Temp Water Temp Dewpoint Dewpoint Depression Visibility Wind Speed Wind Dir Waves Ship Positions

Hordafor III

Last reported at 2016-May-28 23:33 UTC. Time now 2016-May-29 00:05 UTC.
Position N 60°35' E 004°54'.

Length 50 m; draft 6 m.

Type: Wing in ground effect craft. MMSI: 258044000.

Date/timePositionNaut miles runAvg speedWind from/ knotsBaromVisibWave heightAir tempDewpointWater temp
2016-May-28 23:33N 60°35' E 004°54'210 7.0
2016-May-27 17:33N 63°29' E 009°02'1211.5
2016-May-27 16:33N 63°35' E 009°25'8210.2
2016-May-27 08:31N 64°45' E 011°01'1010.5
2016-May-27 07:34N 64°53' E 011°17'1110.7
2016-May-27 06:33N 64°60' E 011°36'1010.4
2016-May-27 05:34N 65°08' E 011°50'68 9.7
2016-May-26 22:33N 66°15' E 012°30'8 7.9
2016-May-26 21:34N 66°22' E 012°23'0 0.0
2016-May-26 20:34N 66°22' E 012°23'0 0.0
2016-May-26 19:33N 66°22' E 012°23'0 0.0
2016-May-26 18:33N 66°22' E 012°23'0 0.0
2016-May-26 17:33N 66°22' E 012°23'5 4.7
2016-May-26 16:33N 66°26' E 012°30'2 2.3
2016-May-26 15:33N 66°23' E 012°28'3 2.5
2016-May-26 14:33N 66°22' E 012°23'0 0.0
2016-May-26 13:33N 66°22' E 012°23'0 0.0
2016-May-26 12:34N 66°22' E 012°23'0 0.0
2016-May-26 11:33N 66°22' E 012°23'0 0.0
2016-May-26 10:34N 66°22' E 012°23'0 0.0
2016-May-26 09:34N 66°22' E 012°23'3 3.1
2016-May-26 08:34N 66°19' E 012°23'10 9.7
2016-May-26 07:33N 66°11' E 012°39'56 9.2
2016-May-26 01:25N 65°17' E 011°59'910.5
2016-May-26 00:33N 65°09' E 011°50'1010.4
2016-May-25 23:33N 65°00' E 011°37'1110.5
2016-May-25 22:34N 64°53' E 011°19'1110.9
2016-May-25 21:33N 64°45' E 011°01'7910.5
2016-May-25 14:04N 63°41' E 009°16'3 5.8
2016-May-25 13:33N 63°43' E 009°20'6 1.4
2016-May-25 09:33N 63°38' E 009°19'1 1.0
2016-May-25 08:34N 63°37' E 009°21'7 7.4
2016-May-25 07:33N 63°43' E 009°32'2 0.3
2016-May-25 00:33N 63°42' E 009°30'11 9.7
2016-May-24 23:26N 63°33' E 009°16'  
2016-May-22 06:20N 61°49' E 005°09'4 5.5
2016-May-22 05:34N 61°53' E 005°10'9 9.1
2016-May-22 04:34N 62°02' E 005°09'19 8.1
2016-May-22 02:10N 62°18' E 005°32'11910.2
2016-May-21 14:32N 63°29' E 008°60'1111.3
2016-May-21 13:33N 63°34' E 009°22'1010.0
2016-May-21 12:34N 63°43' E 009°32'79 9.9
2016-May-21 04:34N 64°50' E 011°10'1010.1
2016-May-21 03:33N 64°56' E 011°28'1010.3
2016-May-21 02:33N 65°04' E 011°45'1010.4
2016-May-21 01:34N 65°13' E 011°54'63 9.0
2016-May-20 18:33N 66°15' E 012°29'7 7.4
2016-May-20 17:34N 66°22' E 012°22'0 0.0
2016-May-20 16:33N 66°22' E 012°22'0 0.0
2016-May-20 15:34N 66°22' E 012°22'0 0.1
2016-May-20 14:33N 66°22' E 012°23'0 0.0
2016-May-20 13:33N 66°22' E 012°23'0 0.0
2016-May-20 12:34N 66°22' E 012°23'0 0.0
2016-May-20 11:33N 66°22' E 012°23'0 0.0
2016-May-20 10:33N 66°22' E 012°23'8 8.3
2016-May-20 09:33N 66°14' E 012°22'57 6.7
2016-May-20 01:05N 65°18' E 011°59'3210.7
2016-May-19 22:04N 64°51' E 011°14'611.3
2016-May-19 21:33N 64°47' E 011°04'80 6.6
2016-May-19 09:34N 63°39' E 009°29'1110.5
2016-May-19 08:33N 63°32' E 009°12'  

Dump ship's entire track history